sensor_id;sensor_type;location;lat;lon;timestamp;P1;durP1;ratioP1;P2;durP2;ratioP2
29378;SDS011;16362;47.202;15.258;2024-02-26T00:01:14;4.00;;;1.63;;
29378;SDS011;16362;47.202;15.258;2024-02-26T00:03:43;2.00;;;1.90;;
29378;SDS011;16362;47.202;15.258;2024-02-26T00:06:13;1.65;;;1.55;;
29378;SDS011;16362;47.202;15.258;2024-02-26T00:08:40;1.50;;;1.40;;
29378;SDS011;16362;47.202;15.258;2024-02-26T00:11:07;1.50;;;1.40;;
29378;SDS011;16362;47.202;15.258;2024-02-26T00:13:35;1.55;;;1.42;;
29378;SDS011;16362;47.202;15.258;2024-02-26T00:16:03;1.83;;;1.50;;
29378;SDS011;16362;47.202;15.258;2024-02-26T00:18:30;2.00;;;1.90;;
29378;SDS011;16362;47.202;15.258;2024-02-26T00:20:57;1.52;;;1.42;;
29378;SDS011;16362;47.202;15.258;2024-02-26T00:23:24;1.85;;;1.70;;
29378;SDS011;16362;47.202;15.258;2024-02-26T00:25:50;2.05;;;1.95;;
29378;SDS011;16362;47.202;15.258;2024-02-26T00:28:17;3.28;;;2.40;;
29378;SDS011;16362;47.202;15.258;2024-02-26T00:30:46;2.40;;;2.20;;
29378;SDS011;16362;47.202;15.258;2024-02-26T00:33:16;1.35;;;1.25;;
29378;SDS011;16362;47.202;15.258;2024-02-26T00:35:43;1.83;;;1.73;;
29378;SDS011;16362;47.202;15.258;2024-02-26T00:38:11;3.28;;;1.48;;
29378;SDS011;16362;47.202;15.258;2024-02-26T00:40:41;3.42;;;1.70;;
29378;SDS011;16362;47.202;15.258;2024-02-26T00:43:08;2.90;;;1.45;;
29378;SDS011;16362;47.202;15.258;2024-02-26T00:45:35;3.38;;;1.77;;
29378;SDS011;16362;47.202;15.258;2024-02-26T00:48:03;1.83;;;1.73;;
29378;SDS011;16362;47.202;15.258;2024-02-26T00:50:34;1.92;;;1.55;;
29378;SDS011;16362;47.202;15.258;2024-02-26T00:53:02;2.13;;;1.92;;
29378;SDS011;16362;47.202;15.258;2024-02-26T00:55:30;2.33;;;2.13;;
29378;SDS011;16362;47.202;15.258;2024-02-26T00:57:56;4.38;;;2.97;;
29378;SDS011;16362;47.202;15.258;2024-02-26T01:00:23;2.13;;;1.70;;
29378;SDS011;16362;47.202;15.258;2024-02-26T01:02:50;3.63;;;1.80;;
29378;SDS011;16362;47.202;15.258;2024-02-26T01:05:17;1.90;;;1.77;;
29378;SDS011;16362;47.202;15.258;2024-02-26T01:07:44;5.10;;;1.95;;
29378;SDS011;16362;47.202;15.258;2024-02-26T01:10:11;1.45;;;1.40;;
29378;SDS011;16362;47.202;15.258;2024-02-26T01:12:42;2.00;;;1.40;;
29378;SDS011;16362;47.202;15.258;2024-02-26T01:15:09;2.30;;;2.10;;
29378;SDS011;16362;47.202;15.258;2024-02-26T01:17:36;2.88;;;2.17;;
29378;SDS011;16362;47.202;15.258;2024-02-26T01:20:05;2.13;;;1.98;;
29378;SDS011;16362;47.202;15.258;2024-02-26T01:22:34;1.70;;;1.60;;
29378;SDS011;16362;47.202;15.258;2024-02-26T01:25:00;1.80;;;1.70;;
29378;SDS011;16362;47.202;15.258;2024-02-26T01:27:27;2.22;;;1.90;;
29378;SDS011;16362;47.202;15.258;2024-02-26T01:29:54;1.98;;;1.88;;
29378;SDS011;16362;47.202;15.258;2024-02-26T01:32:23;3.20;;;1.80;;
29378;SDS011;16362;47.202;15.258;2024-02-26T01:34:51;1.80;;;1.70;;
29378;SDS011;16362;47.202;15.258;2024-02-26T01:37:19;1.80;;;1.60;;
29378;SDS011;16362;47.202;15.258;2024-02-26T01:39:49;3.42;;;2.00;;
29378;SDS011;16362;47.202;15.258;2024-02-26T01:42:16;4.32;;;1.90;;
29378;SDS011;16362;47.202;15.258;2024-02-26T01:44:43;2.25;;;2.08;;
29378;SDS011;16362;47.202;15.258;2024-02-26T01:47:11;3.92;;;1.73;;
29378;SDS011;16362;47.202;15.258;2024-02-26T01:49:38;1.98;;;1.73;;
29378;SDS011;16362;47.202;15.258;2024-02-26T01:52:08;1.67;;;1.58;;
29378;SDS011;16362;47.202;15.258;2024-02-26T01:54:37;1.83;;;1.73;;
29378;SDS011;16362;47.202;15.258;2024-02-26T01:57:05;1.73;;;1.63;;
29378;SDS011;16362;47.202;15.258;2024-02-26T01:59:33;2.70;;;1.60;;
29378;SDS011;16362;47.202;15.258;2024-02-26T02:02:02;1.35;;;1.25;;
29378;SDS011;16362;47.202;15.258;2024-02-26T02:04:32;1.80;;;1.70;;
29378;SDS011;16362;47.202;15.258;2024-02-26T02:06:59;1.90;;;1.80;;
29378;SDS011;16362;47.202;15.258;2024-02-26T02:09:30;1.88;;;1.70;;
29378;SDS011;16362;47.202;15.258;2024-02-26T02:12:02;1.90;;;1.80;;
29378;SDS011;16362;47.202;15.258;2024-02-26T02:14:37;1.88;;;1.77;;
29378;SDS011;16362;47.202;15.258;2024-02-26T02:17:05;0.98;;;0.98;;
29378;SDS011;16362;47.202;15.258;2024-02-26T02:19:32;3.90;;;2.33;;
29378;SDS011;16362;47.202;15.258;2024-02-26T02:22:05;2.85;;;1.58;;
29378;SDS011;16362;47.202;15.258;2024-02-26T02:24:32;2.47;;;1.60;;
29378;SDS011;16362;47.202;15.258;2024-02-26T02:27:00;1.58;;;1.48;;
29378;SDS011;16362;47.202;15.258;2024-02-26T02:29:31;3.90;;;1.80;;
29378;SDS011;16362;47.202;15.258;2024-02-26T02:32:02;2.25;;;1.95;;
29378;SDS011;16362;47.202;15.258;2024-02-26T02:34:32;2.30;;;2.13;;
29378;SDS011;16362;47.202;15.258;2024-02-26T02:37:00;4.28;;;2.20;;
29378;SDS011;16362;47.202;15.258;2024-02-26T02:39:28;2.28;;;1.73;;
29378;SDS011;16362;47.202;15.258;2024-02-26T02:41:55;2.08;;;1.98;;
29378;SDS011;16362;47.202;15.258;2024-02-26T02:44:22;2.00;;;1.90;;
29378;SDS011;16362;47.202;15.258;2024-02-26T02:46:53;2.00;;;1.90;;
29378;SDS011;16362;47.202;15.258;2024-02-26T02:49:24;4.90;;;2.50;;
29378;SDS011;16362;47.202;15.258;2024-02-26T02:51:52;2.70;;;2.03;;
29378;SDS011;16362;47.202;15.258;2024-02-26T02:54:29;1.88;;;1.77;;
29378;SDS011;16362;47.202;15.258;2024-02-26T02:56:59;1.95;;;1.85;;
29378;SDS011;16362;47.202;15.258;2024-02-26T02:59:27;4.20;;;2.00;;
29378;SDS011;16362;47.202;15.258;2024-02-26T03:01:55;2.75;;;2.55;;
29378;SDS011;16362;47.202;15.258;2024-02-26T03:04:30;2.05;;;1.85;;
29378;SDS011;16362;47.202;15.258;2024-02-26T03:07:02;2.45;;;2.08;;
29378;SDS011;16362;47.202;15.258;2024-02-26T03:09:34;3.73;;;2.20;;
29378;SDS011;16362;47.202;15.258;2024-02-26T03:12:05;6.13;;;2.08;;
29378;SDS011;16362;47.202;15.258;2024-02-26T03:14:33;2.08;;;1.98;;
29378;SDS011;16362;47.202;15.258;2024-02-26T03:17:02;1.98;;;1.88;;
29378;SDS011;16362;47.202;15.258;2024-02-26T03:19:34;1.88;;;1.77;;
29378;SDS011;16362;47.202;15.258;2024-02-26T03:22:03;2.17;;;2.05;;
29378;SDS011;16362;47.202;15.258;2024-02-26T03:24:30;3.38;;;1.83;;
29378;SDS011;16362;47.202;15.258;2024-02-26T03:27:01;2.13;;;2.03;;
29378;SDS011;16362;47.202;15.258;2024-02-26T03:29:28;1.92;;;1.83;;
29378;SDS011;16362;47.202;15.258;2024-02-26T03:31:54;1.90;;;1.80;;
29378;SDS011;16362;47.202;15.258;2024-02-26T03:34:21;2.13;;;1.50;;
29378;SDS011;16362;47.202;15.258;2024-02-26T03:36:50;2.00;;;1.80;;
29378;SDS011;16362;47.202;15.258;2024-02-26T03:39:21;2.45;;;2.25;;
29378;SDS011;16362;47.202;15.258;2024-02-26T03:41:51;2.10;;;2.00;;
29378;SDS011;16362;47.202;15.258;2024-02-26T03:44:18;1.90;;;1.80;;
29378;SDS011;16362;47.202;15.258;2024-02-26T03:46:47;1.70;;;1.60;;
29378;SDS011;16362;47.202;15.258;2024-02-26T03:49:17;4.03;;;1.88;;
29378;SDS011;16362;47.202;15.258;2024-02-26T03:51:45;1.98;;;1.83;;
29378;SDS011;16362;47.202;15.258;2024-02-26T03:54:18;3.15;;;2.00;;
29378;SDS011;16362;47.202;15.258;2024-02-26T03:56:52;2.53;;;2.00;;
29378;SDS011;16362;47.202;15.258;2024-02-26T03:59:21;2.08;;;1.90;;
29378;SDS011;16362;47.202;15.258;2024-02-26T04:01:50;1.40;;;1.27;;
29378;SDS011;16362;47.202;15.258;2024-02-26T04:04:19;1.45;;;1.35;;
29378;SDS011;16362;47.202;15.258;2024-02-26T04:06:46;2.95;;;2.10;;
29378;SDS011;16362;47.202;15.258;2024-02-26T04:09:15;1.88;;;1.70;;
29378;SDS011;16362;47.202;15.258;2024-02-26T04:11:43;1.75;;;1.70;;
29378;SDS011;16362;47.202;15.258;2024-02-26T04:14:10;2.38;;;1.85;;
29378;SDS011;16362;47.202;15.258;2024-02-26T04:16:41;2.67;;;2.15;;
29378;SDS011;16362;47.202;15.258;2024-02-26T04:19:14;2.10;;;1.98;;
29378;SDS011;16362;47.202;15.258;2024-02-26T04:21:41;2.55;;;1.92;;
29378;SDS011;16362;47.202;15.258;2024-02-26T04:24:08;3.30;;;1.50;;
29378;SDS011;16362;47.202;15.258;2024-02-26T04:26:36;2.70;;;1.92;;
29378;SDS011;16362;47.202;15.258;2024-02-26T04:29:06;2.08;;;1.98;;
29378;SDS011;16362;47.202;15.258;2024-02-26T04:31:37;4.32;;;1.65;;
29378;SDS011;16362;47.202;15.258;2024-02-26T04:34:07;1.90;;;1.80;;
29378;SDS011;16362;47.202;15.258;2024-02-26T04:36:39;2.80;;;1.85;;
29378;SDS011;16362;47.202;15.258;2024-02-26T04:39:11;2.00;;;1.90;;
29378;SDS011;16362;47.202;15.258;2024-02-26T04:41:39;2.00;;;1.77;;
29378;SDS011;16362;47.202;15.258;2024-02-26T04:44:08;1.92;;;1.70;;
29378;SDS011;16362;47.202;15.258;2024-02-26T04:46:39;2.83;;;1.90;;
29378;SDS011;16362;47.202;15.258;2024-02-26T04:49:11;2.15;;;2.05;;
29378;SDS011;16362;47.202;15.258;2024-02-26T04:51:42;1.83;;;1.70;;
29378;SDS011;16362;47.202;15.258;2024-02-26T04:54:14;1.98;;;1.88;;
29378;SDS011;16362;47.202;15.258;2024-02-26T04:56:41;3.45;;;1.65;;
29378;SDS011;16362;47.202;15.258;2024-02-26T04:59:08;4.07;;;1.95;;
29378;SDS011;16362;47.202;15.258;2024-02-26T05:01:35;3.95;;;3.22;;
29378;SDS011;16362;47.202;15.258;2024-02-26T05:04:03;2.40;;;1.88;;
29378;SDS011;16362;47.202;15.258;2024-02-26T05:06:32;2.08;;;1.98;;
29378;SDS011;16362;47.202;15.258;2024-02-26T05:09:00;1.80;;;1.70;;
29378;SDS011;16362;47.202;15.258;2024-02-26T05:11:29;2.70;;;1.75;;
29378;SDS011;16362;47.202;15.258;2024-02-26T05:13:57;2.28;;;2.08;;
29378;SDS011;16362;47.202;15.258;2024-02-26T05:16:29;2.15;;;1.85;;
29378;SDS011;16362;47.202;15.258;2024-02-26T05:18:57;2.20;;;2.10;;
29378;SDS011;16362;47.202;15.258;2024-02-26T05:21:25;2.38;;;2.17;;
29378;SDS011;16362;47.202;15.258;2024-02-26T05:23:53;1.77;;;1.67;;
29378;SDS011;16362;47.202;15.258;2024-02-26T05:26:21;5.30;;;1.70;;
29378;SDS011;16362;47.202;15.258;2024-02-26T05:28:49;4.25;;;2.25;;
29378;SDS011;16362;47.202;15.258;2024-02-26T05:31:16;6.55;;;2.20;;
29378;SDS011;16362;47.202;15.258;2024-02-26T05:33:45;2.17;;;1.95;;
29378;SDS011;16362;47.202;15.258;2024-02-26T05:36:17;2.72;;;2.45;;
29378;SDS011;16362;47.202;15.258;2024-02-26T05:38:51;2.50;;;2.30;;
29378;SDS011;16362;47.202;15.258;2024-02-26T05:41:24;2.50;;;2.30;;
29378;SDS011;16362;47.202;15.258;2024-02-26T05:43:58;2.70;;;2.20;;
29378;SDS011;16362;47.202;15.258;2024-02-26T05:46:27;2.75;;;2.55;;
29378;SDS011;16362;47.202;15.258;2024-02-26T05:48:56;2.42;;;2.33;;
29378;SDS011;16362;47.202;15.258;2024-02-26T05:51:25;2.40;;;2.30;;
29378;SDS011;16362;47.202;15.258;2024-02-26T05:53:55;3.15;;;2.50;;
29378;SDS011;16362;47.202;15.258;2024-02-26T05:56:26;2.15;;;2.05;;
29378;SDS011;16362;47.202;15.258;2024-02-26T05:58:56;5.40;;;2.28;;
29378;SDS011;16362;47.202;15.258;2024-02-26T06:01:26;2.08;;;1.98;;
29378;SDS011;16362;47.202;15.258;2024-02-26T06:04:00;2.20;;;2.10;;
29378;SDS011;16362;47.202;15.258;2024-02-26T06:06:32;3.25;;;2.25;;
29378;SDS011;16362;47.202;15.258;2024-02-26T06:09:01;2.00;;;1.90;;
29378;SDS011;16362;47.202;15.258;2024-02-26T06:11:32;2.38;;;2.22;;
29378;SDS011;16362;47.202;15.258;2024-02-26T06:14:00;2.97;;;1.70;;
29378;SDS011;16362;47.202;15.258;2024-02-26T06:16:32;1.85;;;1.75;;
29378;SDS011;16362;47.202;15.258;2024-02-26T06:18:59;2.55;;;2.30;;
29378;SDS011;16362;47.202;15.258;2024-02-26T06:21:35;2.50;;;2.30;;
29378;SDS011;16362;47.202;15.258;2024-02-26T06:24:04;3.90;;;2.78;;
29378;SDS011;16362;47.202;15.258;2024-02-26T06:26:35;3.63;;;2.88;;
29378;SDS011;16362;47.202;15.258;2024-02-26T06:29:03;3.90;;;2.95;;
29378;SDS011;16362;47.202;15.258;2024-02-26T06:31:31;3.45;;;3.10;;
29378;SDS011;16362;47.202;15.258;2024-02-26T06:34:00;6.97;;;3.45;;
29378;SDS011;16362;47.202;15.258;2024-02-26T06:36:30;3.50;;;3.10;;
29378;SDS011;16362;47.202;15.258;2024-02-26T06:38:58;3.60;;;3.28;;
29378;SDS011;16362;47.202;15.258;2024-02-26T06:41:29;2.92;;;2.72;;
29378;SDS011;16362;47.202;15.258;2024-02-26T06:43:57;3.90;;;3.50;;
29378;SDS011;16362;47.202;15.258;2024-02-26T06:46:24;3.85;;;3.22;;
29378;SDS011;16362;47.202;15.258;2024-02-26T06:48:55;6.00;;;3.47;;
29378;SDS011;16362;47.202;15.258;2024-02-26T06:51:22;3.60;;;3.40;;
29378;SDS011;16362;47.202;15.258;2024-02-26T06:53:49;3.30;;;2.67;;
29378;SDS011;16362;47.202;15.258;2024-02-26T06:56:18;3.58;;;2.78;;
29378;SDS011;16362;47.202;15.258;2024-02-26T06:58:47;2.80;;;2.70;;
29378;SDS011;16362;47.202;15.258;2024-02-26T07:01:14;2.97;;;2.80;;
29378;SDS011;16362;47.202;15.258;2024-02-26T07:03:42;3.60;;;3.08;;
29378;SDS011;16362;47.202;15.258;2024-02-26T07:06:16;5.95;;;2.92;;
29378;SDS011;16362;47.202;15.258;2024-02-26T07:08:43;2.72;;;2.53;;
29378;SDS011;16362;47.202;15.258;2024-02-26T07:11:13;3.67;;;2.92;;
29378;SDS011;16362;47.202;15.258;2024-02-26T07:13:39;3.58;;;2.58;;
29378;SDS011;16362;47.202;15.258;2024-02-26T07:16:10;2.65;;;2.47;;
29378;SDS011;16362;47.202;15.258;2024-02-26T07:18:37;3.63;;;2.03;;
29378;SDS011;16362;47.202;15.258;2024-02-26T07:21:06;3.00;;;2.28;;
29378;SDS011;16362;47.202;15.258;2024-02-26T07:23:38;2.08;;;1.98;;
29378;SDS011;16362;47.202;15.258;2024-02-26T07:26:05;1.88;;;1.77;;
29378;SDS011;16362;47.202;15.258;2024-02-26T07:28:38;4.80;;;2.33;;
29378;SDS011;16362;47.202;15.258;2024-02-26T07:31:06;1.90;;;1.80;;
29378;SDS011;16362;47.202;15.258;2024-02-26T07:33:35;2.17;;;2.00;;
29378;SDS011;16362;47.202;15.258;2024-02-26T07:36:03;2.40;;;1.40;;
29378;SDS011;16362;47.202;15.258;2024-02-26T07:38:31;2.85;;;2.20;;
29378;SDS011;16362;47.202;15.258;2024-02-26T07:41:11;2.10;;;1.60;;
29378;SDS011;16362;47.202;15.258;2024-02-26T07:43:38;1.90;;;1.80;;
29378;SDS011;16362;47.202;15.258;2024-02-26T07:46:07;1.63;;;1.60;;
29378;SDS011;16362;47.202;15.258;2024-02-26T07:48:40;1.88;;;1.75;;
29378;SDS011;16362;47.202;15.258;2024-02-26T07:51:11;1.83;;;1.73;;
29378;SDS011;16362;47.202;15.258;2024-02-26T07:53:39;3.60;;;1.55;;
29378;SDS011;16362;47.202;15.258;2024-02-26T07:56:09;3.08;;;1.50;;
29378;SDS011;16362;47.202;15.258;2024-02-26T07:58:38;5.15;;;1.90;;
29378;SDS011;16362;47.202;15.258;2024-02-26T08:01:05;1.90;;;1.80;;
29378;SDS011;16362;47.202;15.258;2024-02-26T08:03:36;1.98;;;1.83;;
29378;SDS011;16362;47.202;15.258;2024-02-26T08:06:03;1.67;;;1.58;;
29378;SDS011;16362;47.202;15.258;2024-02-26T08:08:30;1.67;;;1.40;;
29378;SDS011;16362;47.202;15.258;2024-02-26T08:10:57;2.60;;;1.25;;
29378;SDS011;16362;47.202;15.258;2024-02-26T08:13:25;1.70;;;1.60;;
29378;SDS011;16362;47.202;15.258;2024-02-26T08:15:52;1.60;;;1.50;;
29378;SDS011;16362;47.202;15.258;2024-02-26T08:18:19;1.73;;;1.58;;
29378;SDS011;16362;47.202;15.258;2024-02-26T08:20:46;1.50;;;1.40;;
29378;SDS011;16362;47.202;15.258;2024-02-26T08:23:16;1.80;;;1.70;;
29378;SDS011;16362;47.202;15.258;2024-02-26T08:25:44;1.40;;;1.38;;
29378;SDS011;16362;47.202;15.258;2024-02-26T08:28:11;1.60;;;1.50;;
29378;SDS011;16362;47.202;15.258;2024-02-26T08:30:39;2.72;;;1.35;;
29378;SDS011;16362;47.202;15.258;2024-02-26T08:33:09;1.50;;;1.40;;
29378;SDS011;16362;47.202;15.258;2024-02-26T08:35:36;3.10;;;1.67;;
29378;SDS011;16362;47.202;15.258;2024-02-26T08:38:03;1.67;;;1.58;;
29378;SDS011;16362;47.202;15.258;2024-02-26T08:40:30;1.30;;;1.30;;
29378;SDS011;16362;47.202;15.258;2024-02-26T08:42:58;4.55;;;1.40;;
29378;SDS011;16362;47.202;15.258;2024-02-26T08:45:24;1.80;;;1.70;;
29378;SDS011;16362;47.202;15.258;2024-02-26T08:47:56;1.92;;;1.83;;
29378;SDS011;16362;47.202;15.258;2024-02-26T08:50:25;1.70;;;1.60;;
29378;SDS011;16362;47.202;15.258;2024-02-26T08:52:53;1.98;;;1.40;;
29378;SDS011;16362;47.202;15.258;2024-02-26T08:55:23;1.50;;;1.42;;
29378;SDS011;16362;47.202;15.258;2024-02-26T08:57:55;1.95;;;1.85;;
29378;SDS011;16362;47.202;15.258;2024-02-26T09:00:23;3.83;;;1.50;;
29378;SDS011;16362;47.202;15.258;2024-02-26T09:02:50;1.85;;;1.50;;
29378;SDS011;16362;47.202;15.258;2024-02-26T09:05:20;1.95;;;1.85;;
29378;SDS011;16362;47.202;15.258;2024-02-26T09:07:48;2.70;;;2.45;;
29378;SDS011;16362;47.202;15.258;2024-02-26T09:10:14;2.30;;;2.10;;
29378;SDS011;16362;47.202;15.258;2024-02-26T09:12:43;2.63;;;2.53;;
29378;SDS011;16362;47.202;15.258;2024-02-26T09:15:14;2.97;;;2.25;;
29378;SDS011;16362;47.202;15.258;2024-02-26T09:17:41;3.22;;;2.30;;
29378;SDS011;16362;47.202;15.258;2024-02-26T09:20:10;3.63;;;2.67;;
29378;SDS011;16362;47.202;15.258;2024-02-26T09:22:37;3.80;;;2.58;;
29378;SDS011;16362;47.202;15.258;2024-02-26T09:25:36;2.10;;;1.90;;
29378;SDS011;16362;47.202;15.258;2024-02-26T09:28:33;2.22;;;2.13;;
29378;SDS011;16362;47.202;15.258;2024-02-26T09:31:23;4.18;;;2.10;;
29378;SDS011;16362;47.202;15.258;2024-02-26T09:33:51;2.47;;;2.05;;
29378;SDS011;16362;47.202;15.258;2024-02-26T09:36:52;3.55;;;2.38;;
29378;SDS011;16362;47.202;15.258;2024-02-26T09:39:59;3.15;;;2.25;;
29378;SDS011;16362;47.202;15.258;2024-02-26T09:42:30;2.28;;;2.10;;
29378;SDS011;16362;47.202;15.258;2024-02-26T09:45:05;2.17;;;2.03;;
29378;SDS011;16362;47.202;15.258;2024-02-26T09:47:38;4.78;;;2.13;;
29378;SDS011;16362;47.202;15.258;2024-02-26T09:50:09;3.38;;;1.98;;
29378;SDS011;16362;47.202;15.258;2024-02-26T09:52:35;2.65;;;1.95;;
29378;SDS011;16362;47.202;15.258;2024-02-26T09:55:04;2.38;;;2.28;;
29378;SDS011;16362;47.202;15.258;2024-02-26T09:57:34;6.50;;;2.60;;
29378;SDS011;16362;47.202;15.258;2024-02-26T10:00:09;2.50;;;2.30;;
29378;SDS011;16362;47.202;15.258;2024-02-26T10:02:47;7.60;;;1.90;;
29378;SDS011;16362;47.202;15.258;2024-02-26T10:05:17;1.98;;;1.80;;
29378;SDS011;16362;47.202;15.258;2024-02-26T10:07:45;4.40;;;2.13;;
29378;SDS011;16362;47.202;15.258;2024-02-26T10:10:17;1.88;;;1.77;;
29378;SDS011;16362;47.202;15.258;2024-02-26T10:12:44;6.90;;;2.50;;
29378;SDS011;16362;47.202;15.258;2024-02-26T10:15:12;2.80;;;2.28;;
29378;SDS011;16362;47.202;15.258;2024-02-26T10:17:39;2.03;;;1.92;;
29378;SDS011;16362;47.202;15.258;2024-02-26T10:20:11;3.33;;;1.98;;
29378;SDS011;16362;47.202;15.258;2024-02-26T10:22:46;2.00;;;1.90;;
29378;SDS011;16362;47.202;15.258;2024-02-26T10:25:20;2.03;;;1.92;;
29378;SDS011;16362;47.202;15.258;2024-02-26T10:27:47;2.72;;;2.47;;
29378;SDS011;16362;47.202;15.258;2024-02-26T10:30:22;3.45;;;2.90;;
29378;SDS011;16362;47.202;15.258;2024-02-26T10:32:50;2.30;;;2.20;;
29378;SDS011;16362;47.202;15.258;2024-02-26T10:35:19;3.08;;;2.20;;
29378;SDS011;16362;47.202;15.258;2024-02-26T10:37:50;3.45;;;2.10;;
29378;SDS011;16362;47.202;15.258;2024-02-26T10:40:18;4.22;;;2.00;;
29378;SDS011;16362;47.202;15.258;2024-02-26T10:42:47;2.33;;;2.05;;
29378;SDS011;16362;47.202;15.258;2024-02-26T10:45:15;7.13;;;2.53;;
29378;SDS011;16362;47.202;15.258;2024-02-26T10:47:45;5.45;;;2.80;;
29378;SDS011;16362;47.202;15.258;2024-02-26T10:50:13;4.30;;;2.72;;
29378;SDS011;16362;47.202;15.258;2024-02-26T10:52:47;2.60;;;2.25;;
29378;SDS011;16362;47.202;15.258;2024-02-26T10:55:15;2.47;;;2.38;;
29378;SDS011;16362;47.202;15.258;2024-02-26T10:57:48;2.35;;;2.22;;
29378;SDS011;16362;47.202;15.258;2024-02-26T11:00:21;2.13;;;1.80;;
29378;SDS011;16362;47.202;15.258;2024-02-26T11:02:53;2.10;;;2.00;;
29378;SDS011;16362;47.202;15.258;2024-02-26T11:05:24;4.07;;;2.00;;
29378;SDS011;16362;47.202;15.258;2024-02-26T11:07:51;1.98;;;1.88;;
29378;SDS011;16362;47.202;15.258;2024-02-26T11:10:27;2.65;;;1.67;;
29378;SDS011;16362;47.202;15.258;2024-02-26T11:13:02;1.50;;;1.40;;
29378;SDS011;16362;47.202;15.258;2024-02-26T11:15:36;2.13;;;1.73;;
29378;SDS011;16362;47.202;15.258;2024-02-26T11:18:07;4.45;;;1.40;;
29378;SDS011;16362;47.202;15.258;2024-02-26T11:20:38;2.85;;;1.30;;
29378;SDS011;16362;47.202;15.258;2024-02-26T11:23:10;5.10;;;1.70;;
29378;SDS011;16362;47.202;15.258;2024-02-26T11:25:43;1.83;;;1.70;;
29378;SDS011;16362;47.202;15.258;2024-02-26T11:28:12;2.35;;;2.00;;
29378;SDS011;16362;47.202;15.258;2024-02-26T11:30:46;1.85;;;1.65;;
29378;SDS011;16362;47.202;15.258;2024-02-26T11:33:16;1.63;;;1.52;;
29378;SDS011;16362;47.202;15.258;2024-02-26T11:35:45;1.65;;;1.55;;
29378;SDS011;16362;47.202;15.258;2024-02-26T11:38:21;3.90;;;1.60;;
29378;SDS011;16362;47.202;15.258;2024-02-26T11:40:52;2.85;;;1.20;;
29378;SDS011;16362;47.202;15.258;2024-02-26T11:43:49;2.45;;;1.70;;
29378;SDS011;16362;47.202;15.258;2024-02-26T11:46:28;3.85;;;1.55;;
29378;SDS011;16362;47.202;15.258;2024-02-26T11:51:57;1.40;;;1.35;;
29378;SDS011;16362;47.202;15.258;2024-02-26T11:54:48;10.55;;;1.75;;
29378;SDS011;16362;47.202;15.258;2024-02-26T12:00:13;1.60;;;1.50;;
29378;SDS011;16362;47.202;15.258;2024-02-26T12:05:16;2.38;;;2.25;;
29378;SDS011;16362;47.202;15.258;2024-02-26T12:07:55;2.67;;;2.10;;
29378;SDS011;16362;47.202;15.258;2024-02-26T12:10:33;2.15;;;1.92;;
29378;SDS011;16362;47.202;15.258;2024-02-26T12:13:14;1.90;;;1.80;;
29378;SDS011;16362;47.202;15.258;2024-02-26T12:18:22;3.58;;;2.13;;
29378;SDS011;16362;47.202;15.258;2024-02-26T12:21:00;2.20;;;2.10;;
29378;SDS011;16362;47.202;15.258;2024-02-26T12:23:30;2.47;;;1.83;;
29378;SDS011;16362;47.202;15.258;2024-02-26T12:26:01;3.10;;;1.63;;
29378;SDS011;16362;47.202;15.258;2024-02-26T12:28:36;3.35;;;1.80;;
29378;SDS011;16362;47.202;15.258;2024-02-26T12:31:03;2.97;;;1.83;;
29378;SDS011;16362;47.202;15.258;2024-02-26T12:33:35;2.25;;;1.73;;
29378;SDS011;16362;47.202;15.258;2024-02-26T12:36:08;1.75;;;1.65;;
29378;SDS011;16362;47.202;15.258;2024-02-26T12:38:43;1.85;;;1.75;;
29378;SDS011;16362;47.202;15.258;2024-02-26T12:41:10;3.67;;;2.15;;
29378;SDS011;16362;47.202;15.258;2024-02-26T12:43:43;1.67;;;1.58;;
29378;SDS011;16362;47.202;15.258;2024-02-26T12:46:16;3.78;;;1.70;;
29378;SDS011;16362;47.202;15.258;2024-02-26T12:48:54;2.25;;;1.42;;
29378;SDS011;16362;47.202;15.258;2024-02-26T12:51:30;2.10;;;1.90;;
29378;SDS011;16362;47.202;15.258;2024-02-26T12:54:07;4.38;;;1.52;;
29378;SDS011;16362;47.202;15.258;2024-02-26T12:56:39;1.98;;;1.48;;
29378;SDS011;16362;47.202;15.258;2024-02-26T12:59:06;1.50;;;1.40;;
29378;SDS011;16362;47.202;15.258;2024-02-26T13:01:43;2.25;;;1.60;;
29378;SDS011;16362;47.202;15.258;2024-02-26T13:04:11;2.25;;;1.40;;
29378;SDS011;16362;47.202;15.258;2024-02-26T13:06:50;2.15;;;1.55;;
29378;SDS011;16362;47.202;15.258;2024-02-26T13:09:17;3.50;;;1.38;;
29378;SDS011;16362;47.202;15.258;2024-02-26T13:11:45;1.15;;;1.15;;
29378;SDS011;16362;47.202;15.258;2024-02-26T13:14:24;1.83;;;1.15;;
29378;SDS011;16362;47.202;15.258;2024-02-26T13:16:57;3.42;;;1.00;;
29378;SDS011;16362;47.202;15.258;2024-02-26T13:19:24;2.83;;;1.10;;
29378;SDS011;16362;47.202;15.258;2024-02-26T13:21:53;2.78;;;0.93;;
29378;SDS011;16362;47.202;15.258;2024-02-26T13:24:24;2.80;;;0.90;;
29378;SDS011;16362;47.202;15.258;2024-02-26T13:26:55;0.80;;;0.80;;
29378;SDS011;16362;47.202;15.258;2024-02-26T13:29:23;0.65;;;0.65;;
29378;SDS011;16362;47.202;15.258;2024-02-26T13:32:09;0.80;;;0.73;;
29378;SDS011;16362;47.202;15.258;2024-02-26T13:34:38;0.93;;;0.93;;
29378;SDS011;16362;47.202;15.258;2024-02-26T13:37:07;1.88;;;0.70;;
29378;SDS011;16362;47.202;15.258;2024-02-26T13:39:35;0.82;;;0.82;;
29378;SDS011;16362;47.202;15.258;2024-02-26T13:42:07;0.77;;;0.77;;
29378;SDS011;16362;47.202;15.258;2024-02-26T13:44:34;0.70;;;0.70;;
29378;SDS011;16362;47.202;15.258;2024-02-26T13:47:07;1.17;;;0.88;;
29378;SDS011;16362;47.202;15.258;2024-02-26T13:49:35;1.10;;;0.80;;
29378;SDS011;16362;47.202;15.258;2024-02-26T13:52:07;0.80;;;0.80;;
29378;SDS011;16362;47.202;15.258;2024-02-26T13:54:34;0.98;;;0.82;;
29378;SDS011;16362;47.202;15.258;2024-02-26T13:57:07;2.30;;;0.88;;
29378;SDS011;16362;47.202;15.258;2024-02-26T13:59:41;2.10;;;0.90;;
29378;SDS011;16362;47.202;15.258;2024-02-26T14:02:09;0.60;;;0.60;;
29378;SDS011;16362;47.202;15.258;2024-02-26T14:04:39;0.60;;;0.60;;
29378;SDS011;16362;47.202;15.258;2024-02-26T14:07:18;0.63;;;0.63;;
29378;SDS011;16362;47.202;15.258;2024-02-26T14:09:49;0.93;;;0.80;;
29378;SDS011;16362;47.202;15.258;2024-02-26T14:12:22;0.88;;;0.88;;
29378;SDS011;16362;47.202;15.258;2024-02-26T14:14:50;0.75;;;0.75;;
29378;SDS011;16362;47.202;15.258;2024-02-26T14:17:21;0.57;;;0.57;;
29378;SDS011;16362;47.202;15.258;2024-02-26T14:19:51;0.77;;;0.77;;
29378;SDS011;16362;47.202;15.258;2024-02-26T14:22:18;0.70;;;0.70;;
29378;SDS011;16362;47.202;15.258;2024-02-26T14:24:48;0.70;;;0.70;;
29378;SDS011;16362;47.202;15.258;2024-02-26T14:27:19;7.88;;;1.23;;
29378;SDS011;16362;47.202;15.258;2024-02-26T14:29:49;2.40;;;2.20;;
29378;SDS011;16362;47.202;15.258;2024-02-26T14:32:20;7.65;;;2.00;;
29378;SDS011;16362;47.202;15.258;2024-02-26T14:34:50;4.38;;;3.05;;
29378;SDS011;16362;47.202;15.258;2024-02-26T14:37:32;3.60;;;3.30;;
29378;SDS011;16362;47.202;15.258;2024-02-26T14:40:04;2.72;;;2.53;;
29378;SDS011;16362;47.202;15.258;2024-02-26T14:42:37;2.38;;;2.15;;
29378;SDS011;16362;47.202;15.258;2024-02-26T14:45:05;1.63;;;1.52;;
29378;SDS011;16362;47.202;15.258;2024-02-26T14:47:38;1.27;;;1.23;;
29378;SDS011;16362;47.202;15.258;2024-02-26T14:50:06;1.20;;;1.20;;
29378;SDS011;16362;47.202;15.258;2024-02-26T14:52:34;0.80;;;0.80;;
29378;SDS011;16362;47.202;15.258;2024-02-26T14:55:01;1.25;;;0.80;;
29378;SDS011;16362;47.202;15.258;2024-02-26T14:57:29;0.80;;;0.80;;
29378;SDS011;16362;47.202;15.258;2024-02-26T14:59:57;2.63;;;0.65;;
29378;SDS011;16362;47.202;15.258;2024-02-26T15:02:26;1.38;;;0.90;;